Airfield :
LOGIN :

Register | Disclaimer

   EN    FR    IT 

 










Legend :    VFR   Marginal VFR   IFR   Intensive IFR   Very Intensive IFR
Visi :
Ceiling :
>= 8 km
>= 3000ft
5 to 8 km
1000 to 3000 ft
1500m to 5 km
500 to 1000 ft
800 to 1500m
200 to 500 ft
< 800m
< 200 ft
Symbols :   Thunderstorms  Fog  Heavy snow  Heavy precipitations  Wind > 20 kt
SIGMETs :     Misc.  Thunderstorms  Icing  Turbulence  Mountain Waves  Volcanic Ashes






- Airport Elevation : 60 ft
- IATA code : MJT


LGMT - Odysseas Elytis

CURRENT METAR :
  • 021250Z 23013KT 9999 BKN025 14/06 Q1009

EXPIRED METARs :
  • 021220Z 22012KT 9999 BKN025 14/06 Q1009
  • 021150Z 26008KT 9999 BKN025 14/06 Q1009
  • 021120Z 25012KT 9999 SCT025 14/04 Q1010
  • 021050Z 28008KT 9999 SCT025 14/04 Q1010
  • 021020Z 30008KT 9999 SCT025 13/04 Q1010

TAF TAF LGMT
Valid from the 02 at 12:00 until the 02 at 21:00 UTC


021100Z 0212/0221 27015KT 9999 SCT025
PROB30
TEMPO 0212/0218 5000 RA SCT010 FEW018TCU OVC025
BECMG 0216/0218 33015KT



MET'MAP, your aeronautical weather chart ! - Copyright ORBIFLY December 2007 - Disclaimer

ORBIFLY MET'MAP TEAM :

Programming & Development : Alexandra Zaïnal
Concept & original design : Baudouin d'Aumeries
Assistance for programming : Marc-Olivier Méhu
Technical & hardware support : Manuel Goepfert

Contact : metmap@orbifly.com




SOURCES & CREDITS :

   NOAA